createdAt,value
2019-03-25T00:02:02.629Z,3.90
2019-03-25T00:05:06.980Z,3.80
2019-03-25T00:08:10.413Z,3.80
2019-03-25T00:11:14.102Z,3.80
2019-03-25T00:14:17.542Z,3.80
2019-03-25T00:17:21.003Z,3.80
2019-03-25T00:20:24.422Z,3.80
2019-03-25T00:23:27.876Z,3.90
2019-03-25T00:26:31.326Z,4.00
2019-03-25T00:29:34.784Z,4.10
2019-03-25T00:32:38.223Z,4.20
2019-03-25T00:35:41.665Z,4.20
2019-03-25T00:38:45.121Z,4.10
2019-03-25T00:41:48.589Z,4.10
2019-03-25T00:44:52.023Z,4.10
2019-03-25T00:47:55.477Z,4.00
2019-03-25T00:50:58.909Z,3.90
2019-03-25T00:54:02.361Z,3.80
2019-03-25T00:57:05.821Z,3.70
2019-03-25T01:00:10.214Z,3.50
2019-03-25T01:03:13.676Z,3.50
2019-03-25T01:06:17.108Z,3.50
2019-03-25T01:09:20.561Z,3.40
2019-03-25T01:12:24.016Z,3.30
2019-03-25T01:15:27.476Z,3.30
2019-03-25T01:18:30.937Z,3.20
2019-03-25T01:21:34.395Z,3.20
2019-03-25T01:24:37.976Z,3.10
2019-03-25T01:27:41.437Z,3.10
2019-03-25T01:30:44.893Z,3.10
2019-03-25T01:33:48.357Z,3.10
2019-03-25T01:36:51.792Z,3.10
2019-03-25T01:39:55.256Z,3.10
2019-03-25T01:42:58.684Z,3.00
2019-03-25T01:46:02.146Z,3.00
2019-03-25T01:49:05.588Z,3.00
2019-03-25T01:52:09.058Z,2.90
2019-03-25T01:55:13.653Z,2.90
2019-03-25T01:58:17.321Z,2.90
2019-03-25T02:01:20.769Z,2.90
2019-03-25T02:04:24.225Z,3.00
2019-03-25T02:07:27.672Z,3.00
2019-03-25T02:10:31.097Z,3.10
2019-03-25T02:13:34.629Z,3.30
2019-03-25T02:16:38.090Z,3.40
2019-03-25T02:19:41.544Z,3.40
2019-03-25T02:22:45.115Z,3.50
2019-03-25T02:25:48.713Z,3.60
2019-03-25T02:28:52.144Z,3.60
2019-03-25T02:31:55.612Z,3.70
2019-03-25T02:35:01.588Z,3.70
2019-03-25T02:38:05.085Z,3.70
2019-03-25T02:41:08.609Z,3.60
2019-03-25T02:44:12.057Z,3.70
2019-03-25T02:47:22.518Z,3.70
2019-03-25T02:50:25.973Z,3.70
2019-03-25T02:53:29.428Z,3.60
2019-03-25T02:56:32.892Z,3.70
2019-03-25T02:59:36.359Z,3.80
2019-03-25T03:02:39.890Z,3.80
2019-03-25T03:05:43.332Z,3.70
2019-03-25T03:08:47.662Z,3.80
2019-03-25T03:11:51.318Z,3.90
2019-03-25T03:14:54.781Z,3.90
2019-03-25T03:17:58.238Z,4.00
2019-03-25T03:21:01.788Z,4.00
2019-03-25T03:24:05.313Z,4.00
2019-03-25T03:27:08.766Z,4.00
2019-03-25T03:30:12.466Z,4.10
2019-03-25T03:33:15.955Z,4.10
2019-03-25T03:36:19.478Z,4.20
2019-03-25T03:39:22.988Z,4.20
2019-03-25T03:42:26.454Z,4.20
2019-03-25T03:45:29.891Z,4.20
2019-03-25T03:48:33.381Z,4.20
2019-03-25T03:51:36.837Z,4.10
2019-03-25T03:54:40.373Z,4.00
2019-03-25T03:57:44.102Z,4.00
2019-03-25T04:00:47.643Z,4.00
2019-03-25T04:03:51.097Z,4.10
2019-03-25T04:06:54.550Z,4.00
2019-03-25T04:09:58.071Z,3.90
2019-03-25T04:13:01.582Z,3.90
2019-03-25T04:16:05.118Z,3.80
2019-03-25T04:19:08.594Z,3.80
2019-03-25T04:22:12.135Z,3.80
2019-03-25T04:25:15.584Z,3.70
2019-03-25T04:28:19.230Z,3.80
2019-03-25T04:31:22.689Z,3.80
2019-03-25T04:34:26.164Z,3.80
2019-03-25T04:37:29.616Z,3.80
2019-03-25T04:40:33.148Z,3.70
2019-03-25T04:43:36.604Z,3.70
2019-03-25T04:46:40.077Z,3.70
2019-03-25T04:49:43.556Z,3.70
2019-03-25T04:52:47.076Z,3.70
2019-03-25T04:55:50.557Z,3.70
2019-03-25T04:58:54.072Z,3.70
2019-03-25T05:01:57.528Z,3.70
2019-03-25T05:05:00.969Z,3.70
2019-03-25T05:08:04.572Z,3.70
2019-03-25T05:11:08.048Z,3.70
2019-03-25T05:14:11.532Z,3.70
2019-03-25T05:17:14.964Z,3.60
2019-03-25T05:20:18.434Z,3.60
2019-03-25T05:23:21.900Z,3.60
2019-03-25T05:26:25.385Z,3.70
2019-03-25T05:29:28.820Z,3.70
2019-03-25T05:32:32.320Z,3.70
2019-03-25T05:35:35.773Z,3.70
2019-03-25T05:38:39.257Z,3.80
2019-03-25T05:41:42.688Z,3.80
2019-03-25T05:44:46.168Z,3.80
2019-03-25T05:47:49.621Z,3.90
2019-03-25T05:50:53.165Z,3.90
2019-03-25T05:53:56.653Z,3.90
2019-03-25T05:57:02.770Z,3.90
2019-03-25T06:00:05.821Z,3.90
2019-03-25T06:03:09.253Z,4.00
2019-03-25T06:06:12.729Z,4.10
2019-03-25T06:09:16.192Z,4.10
2019-03-25T06:12:19.677Z,4.10
2019-03-25T06:15:23.244Z,4.20
2019-03-25T06:18:28.245Z,4.30
2019-03-25T06:21:31.693Z,4.40
2019-03-25T06:24:35.176Z,4.30
2019-03-25T06:27:38.633Z,4.30
2019-03-25T06:30:42.112Z,4.30
2019-03-25T06:33:45.563Z,4.20
2019-03-25T06:36:49.071Z,4.20
2019-03-25T06:39:52.572Z,4.20
2019-03-25T06:42:56.015Z,4.20
2019-03-25T06:45:59.536Z,4.20
2019-03-25T06:49:03.035Z,4.30
2019-03-25T06:52:06.504Z,4.40
2019-03-25T06:55:10.330Z,4.40
2019-03-25T06:58:13.765Z,4.50
2019-03-25T07:01:17.249Z,4.60
2019-03-25T07:04:20.701Z,4.60
2019-03-25T07:07:24.161Z,4.60
2019-03-25T07:10:32.604Z,4.60
2019-03-25T07:13:36.305Z,4.50
2019-03-25T07:16:39.753Z,4.50
2019-03-25T07:19:43.204Z,4.70
2019-03-25T07:22:46.694Z,4.80
2019-03-25T07:25:50.154Z,5.40
2019-03-25T07:28:53.609Z,6.10
2019-03-25T07:31:57.148Z,6.50
2019-03-25T07:35:00.579Z,6.30
2019-03-25T07:38:04.044Z,6.00
2019-03-25T07:41:07.473Z,5.80
2019-03-25T07:44:10.936Z,5.70
2019-03-25T07:47:14.352Z,5.50
2019-03-25T07:50:17.810Z,5.40
2019-03-25T07:53:21.265Z,5.40
2019-03-25T07:56:24.743Z,5.40
2019-03-25T07:59:29.089Z,5.50
2019-03-25T08:02:32.644Z,5.70
2019-03-25T08:05:36.122Z,6.20
2019-03-25T08:08:39.652Z,7.00
2019-03-25T08:11:43.160Z,7.40
2019-03-25T08:14:46.612Z,7.40
2019-03-25T08:17:50.368Z,6.90
2019-03-25T08:20:53.822Z,6.40
2019-03-25T08:23:57.305Z,6.00
2019-03-25T08:27:00.812Z,5.60
2019-03-25T08:30:07.480Z,5.20
2019-03-25T08:33:10.941Z,5.10
2019-03-25T08:36:14.475Z,5.20
2019-03-25T08:39:17.930Z,5.60
2019-03-25T08:42:21.409Z,5.90
2019-03-25T08:45:24.909Z,6.10
2019-03-25T08:48:28.388Z,6.30
2019-03-25T08:51:41.850Z,6.20
2019-03-25T08:54:45.408Z,6.00
2019-03-25T08:57:48.962Z,5.90
2019-03-25T09:00:52.415Z,5.80
2019-03-25T09:03:55.896Z,5.80
2019-03-25T09:06:59.325Z,5.90
2019-03-25T09:10:04.654Z,6.00
2019-03-25T09:13:08.113Z,6.00
2019-03-25T09:16:11.642Z,5.90
2019-03-25T09:19:15.093Z,5.90
2019-03-25T09:22:20.585Z,5.90
2019-03-25T09:25:24.009Z,5.70
2019-03-25T09:28:27.484Z,5.40
2019-03-25T09:31:36.740Z,5.10
2019-03-25T09:34:36.122Z,5.00
2019-03-25T09:37:39.581Z,5.00
2019-03-25T09:40:43.056Z,5.00
2019-03-25T09:43:46.548Z,5.00
2019-03-25T09:46:50.028Z,5.00
2019-03-25T09:49:53.521Z,5.00
2019-03-25T09:52:56.947Z,4.90
2019-03-25T09:56:00.486Z,5.00
2019-03-25T09:59:04.084Z,5.10
2019-03-25T10:02:07.537Z,5.30
2019-03-25T10:05:11.306Z,5.50
2019-03-25T10:08:14.788Z,5.60
2019-03-25T10:11:18.244Z,5.50
2019-03-25T10:14:21.760Z,5.30
2019-03-25T10:17:25.193Z,5.10
2019-03-25T10:20:28.718Z,5.00
2019-03-25T10:23:32.270Z,4.90
2019-03-25T10:26:35.773Z,4.80
2019-03-25T10:29:39.229Z,5.00
2019-03-25T10:32:42.953Z,5.20
2019-03-25T10:35:46.742Z,5.40
2019-03-25T10:38:50.199Z,5.70
2019-03-25T10:41:53.663Z,6.10
2019-03-25T10:44:57.093Z,6.40
2019-03-25T10:48:00.546Z,6.70
2019-03-25T10:51:04.093Z,6.80
2019-03-25T10:54:07.602Z,6.60
2019-03-25T10:57:11.026Z,6.50
2019-03-25T11:00:15.337Z,6.40
2019-03-25T11:03:18.764Z,6.30
2019-03-25T11:06:22.222Z,6.30
2019-03-25T11:09:25.719Z,6.40
2019-03-25T11:12:29.232Z,6.50
2019-03-25T11:15:32.711Z,6.50
2019-03-25T11:18:36.177Z,6.70
2019-03-25T11:21:39.612Z,6.90
2019-03-25T11:24:43.068Z,6.70
2019-03-25T11:27:54.232Z,6.30
2019-03-25T11:30:54.155Z,6.10
2019-03-25T11:33:57.585Z,6.30
2019-03-25T11:37:01.032Z,6.30
2019-03-25T11:40:07.689Z,6.00
2019-03-25T11:43:13.061Z,5.80
2019-03-25T11:46:16.494Z,5.80
2019-03-25T11:49:19.948Z,5.90
2019-03-25T11:52:23.385Z,6.10
2019-03-25T11:55:26.841Z,6.10
2019-03-25T11:58:30.283Z,6.50
2019-03-25T12:01:33.733Z,6.50
2019-03-25T12:04:37.168Z,6.30
2019-03-25T12:07:40.944Z,6.10
2019-03-25T12:10:48.401Z,6.10
2019-03-25T12:13:51.864Z,6.00
2019-03-25T12:16:55.292Z,6.20
2019-03-25T12:19:58.749Z,6.40
2019-03-25T12:23:02.205Z,6.60
2019-03-25T12:26:05.688Z,6.70
2019-03-25T12:29:09.136Z,6.70
2019-03-25T12:32:12.624Z,6.80
2019-03-25T12:35:16.252Z,6.90
2019-03-25T12:38:19.803Z,6.90
2019-03-25T12:41:23.237Z,6.50
2019-03-25T12:44:26.713Z,6.30
2019-03-25T12:47:30.167Z,6.30
2019-03-25T12:50:33.897Z,6.00
2019-03-25T12:53:37.360Z,5.90
2019-03-25T12:56:40.840Z,5.90
2019-03-25T12:59:44.289Z,5.90
2019-03-25T13:02:47.777Z,5.90
2019-03-25T13:05:51.239Z,5.90
2019-03-25T13:08:54.712Z,5.90
2019-03-25T13:11:58.142Z,5.90
2019-03-25T13:15:01.602Z,6.00
2019-03-25T13:18:05.104Z,6.10
2019-03-25T13:21:08.602Z,6.10
2019-03-25T13:24:12.128Z,6.10
2019-03-25T13:27:15.657Z,6.20
2019-03-25T13:30:19.430Z,6.30
2019-03-25T13:33:22.912Z,6.60
2019-03-25T13:36:26.344Z,6.60
2019-03-25T13:39:29.797Z,6.70
2019-03-25T13:42:33.248Z,6.70
2019-03-25T13:45:36.724Z,7.00
2019-03-25T13:48:40.173Z,7.30
2019-03-25T13:51:43.640Z,7.60
2019-03-25T13:54:47.077Z,7.70
2019-03-25T13:57:50.561Z,7.60
2019-03-25T14:00:54.018Z,7.30
2019-03-25T14:03:58.411Z,7.30
2019-03-25T14:07:03.940Z,7.20
2019-03-25T14:10:08.900Z,7.30
2019-03-25T14:13:12.356Z,7.40
2019-03-25T14:16:15.788Z,7.50
2019-03-25T14:19:19.252Z,7.30
2019-03-25T14:22:22.709Z,7.10
2019-03-25T14:25:26.164Z,7.00
2019-03-25T14:28:29.596Z,7.00
2019-03-25T14:31:33.072Z,7.00
2019-03-25T14:34:44.448Z,6.90
2019-03-25T14:37:41.704Z,6.70
2019-03-25T14:40:45.277Z,6.60
2019-03-25T14:43:48.705Z,6.70
2019-03-25T14:46:52.189Z,6.70
2019-03-25T14:49:55.616Z,6.80
2019-03-25T14:52:59.077Z,6.90
2019-03-25T14:56:02.533Z,7.00
2019-03-25T14:59:06.025Z,7.10
2019-03-25T15:02:09.485Z,7.00
2019-03-25T15:05:13.400Z,7.10
2019-03-25T15:08:16.894Z,7.20
2019-03-25T15:11:20.321Z,7.30
2019-03-25T15:14:23.810Z,7.40
2019-03-25T15:17:27.255Z,7.40
2019-03-25T15:20:30.712Z,7.40
2019-03-25T15:23:34.196Z,7.40
2019-03-25T15:26:37.651Z,7.40
2019-03-25T15:29:41.136Z,7.20
2019-03-25T15:32:44.597Z,7.00
2019-03-25T15:35:48.069Z,6.90
2019-03-25T15:38:51.517Z,6.80
2019-03-25T15:41:55.013Z,6.60
2019-03-25T15:44:58.457Z,6.20
2019-03-25T15:48:01.941Z,5.80
2019-03-25T15:51:05.406Z,5.40
2019-03-25T15:54:08.881Z,5.30
2019-03-25T15:57:12.352Z,5.10
2019-03-25T16:00:19.070Z,4.90
2019-03-25T16:03:22.537Z,4.80
2019-03-25T16:06:25.992Z,4.80
2019-03-25T16:09:29.474Z,4.80
2019-03-25T16:12:32.924Z,4.80
2019-03-25T16:15:43.253Z,4.80
2019-03-25T16:18:46.681Z,4.90
2019-03-25T16:21:50.161Z,4.80
2019-03-25T16:24:53.622Z,4.80
2019-03-25T16:27:57.159Z,4.80
2019-03-25T16:31:00.642Z,4.70
2019-03-25T16:34:04.184Z,4.60
2019-03-25T16:37:07.609Z,4.50
2019-03-25T16:40:11.062Z,4.50
2019-03-25T16:43:14.529Z,4.40
2019-03-25T16:46:32.101Z,4.30
2019-03-25T16:49:35.577Z,4.30
2019-03-25T16:52:39.016Z,4.20
2019-03-25T16:55:42.516Z,4.10
2019-03-25T16:58:45.966Z,4.00
2019-03-25T17:01:49.447Z,4.00
2019-03-25T17:04:52.901Z,4.00
2019-03-25T17:07:56.380Z,4.00
2019-03-25T17:10:59.816Z,4.10
2019-03-25T17:14:03.268Z,4.10
2019-03-25T17:17:06.768Z,4.10
2019-03-25T17:20:10.888Z,4.20
2019-03-25T17:23:14.731Z,4.20
2019-03-25T17:26:18.177Z,4.20
2019-03-25T17:29:21.662Z,4.30
2019-03-25T17:32:25.094Z,4.30
2019-03-25T17:35:28.572Z,4.30
2019-03-25T17:38:32.005Z,4.40
2019-03-25T17:41:35.505Z,4.30
2019-03-25T17:44:38.999Z,4.30
2019-03-25T17:47:42.501Z,4.30
2019-03-25T17:50:46.006Z,4.30
2019-03-25T17:53:49.467Z,4.30
2019-03-25T17:56:52.924Z,4.20
2019-03-25T17:59:56.377Z,4.20
2019-03-25T18:03:10.506Z,4.20
2019-03-25T18:06:05.013Z,4.20
2019-03-25T18:09:09.008Z,4.20
2019-03-25T18:12:12.480Z,4.10
2019-03-25T18:15:15.929Z,4.10
2019-03-25T18:18:19.421Z,4.00
2019-03-25T18:21:22.881Z,4.00
2019-03-25T18:24:26.597Z,4.10
2019-03-25T18:27:30.030Z,4.00
2019-03-25T18:30:34.529Z,4.00
2019-03-25T18:33:37.985Z,4.00
2019-03-25T18:36:41.452Z,4.10
2019-03-25T18:39:44.884Z,4.10
2019-03-25T18:42:48.341Z,4.20
2019-03-25T18:45:51.798Z,4.20
2019-03-25T18:48:55.275Z,4.30
2019-03-25T18:51:58.756Z,4.30
2019-03-25T18:55:02.216Z,4.20
2019-03-25T18:58:05.691Z,4.10
2019-03-25T19:01:09.148Z,4.10
2019-03-25T19:04:12.617Z,4.10
2019-03-25T19:07:16.049Z,4.20
2019-03-25T19:10:27.325Z,4.20
2019-03-25T19:13:30.789Z,4.10
2019-03-25T19:16:34.256Z,4.00
2019-03-25T19:19:37.709Z,4.10
2019-03-25T19:22:41.183Z,4.10
2019-03-25T19:25:44.641Z,4.20
2019-03-25T19:28:48.117Z,4.30
2019-03-25T19:31:51.617Z,4.30
2019-03-25T19:34:55.096Z,4.30
2019-03-25T19:37:58.573Z,4.30
2019-03-25T19:41:02.006Z,4.40
2019-03-25T19:44:05.521Z,4.50
2019-03-25T19:47:09.000Z,4.50
2019-03-25T19:50:13.322Z,4.50
2019-03-25T19:53:19.499Z,4.50
2019-03-25T19:56:22.014Z,4.50
2019-03-25T19:59:25.544Z,4.50
2019-03-25T20:02:29.028Z,4.50
2019-03-25T20:05:32.588Z,4.50
2019-03-25T20:08:36.115Z,4.50
2019-03-25T20:11:39.687Z,4.50
2019-03-25T20:14:43.212Z,4.50
2019-03-25T20:17:46.781Z,4.60
2019-03-25T20:20:50.312Z,4.60
2019-03-25T20:23:53.888Z,4.70
2019-03-25T20:26:57.386Z,4.60
2019-03-25T20:30:00.844Z,4.60
2019-03-25T20:33:04.591Z,4.70
2019-03-25T20:36:08.088Z,4.70
2019-03-25T20:39:12.015Z,4.70
2019-03-25T20:42:15.558Z,4.80
2019-03-25T20:45:19.123Z,4.80
2019-03-25T20:48:22.626Z,4.80
2019-03-25T20:51:26.104Z,4.80
2019-03-25T20:54:29.606Z,4.80
2019-03-25T20:57:33.113Z,4.80
2019-03-25T21:00:47.278Z,4.80
2019-03-25T21:03:50.818Z,4.80
2019-03-25T21:06:54.688Z,4.80
2019-03-25T21:09:58.374Z,4.80
2019-03-25T21:13:01.862Z,4.80
2019-03-25T21:16:05.373Z,4.90
2019-03-25T21:19:08.966Z,4.80
2019-03-25T21:22:12.533Z,4.90
2019-03-25T21:25:16.061Z,4.90
2019-03-25T21:28:19.627Z,4.90
2019-03-25T21:31:23.109Z,4.90
2019-03-25T21:34:26.711Z,4.90
2019-03-25T21:37:30.163Z,4.90
2019-03-25T21:40:33.651Z,4.80
2019-03-25T21:43:37.197Z,4.70
2019-03-25T21:46:40.678Z,4.60
2019-03-25T21:49:44.223Z,4.60
2019-03-25T21:52:47.808Z,4.50
2019-03-25T21:55:51.363Z,4.50
2019-03-25T21:58:55.148Z,4.40
2019-03-25T22:01:58.673Z,4.40
2019-03-25T22:05:02.217Z,4.30
2019-03-25T22:08:05.644Z,4.30
2019-03-25T22:11:09.144Z,4.30
2019-03-25T22:14:12.671Z,4.20
2019-03-25T22:17:16.116Z,4.30
2019-03-25T22:20:19.588Z,4.30
2019-03-25T22:23:23.112Z,4.40
2019-03-25T22:26:26.596Z,4.40
2019-03-25T22:29:30.081Z,4.40
2019-03-25T22:32:33.544Z,4.40
2019-03-25T22:35:37.490Z,4.40
2019-03-25T22:38:40.952Z,4.40
2019-03-25T22:41:44.445Z,4.40
2019-03-25T22:44:47.965Z,4.40
2019-03-25T22:47:51.413Z,4.30
2019-03-25T22:50:54.908Z,4.30
2019-03-25T22:53:58.384Z,4.20
2019-03-25T22:57:01.821Z,4.10
2019-03-25T23:00:07.640Z,4.10
2019-03-25T23:03:11.078Z,4.10
2019-03-25T23:06:14.575Z,4.10
2019-03-25T23:09:18.011Z,4.10
2019-03-25T23:12:21.493Z,4.10
2019-03-25T23:15:24.924Z,4.10
2019-03-25T23:18:28.404Z,4.20
2019-03-25T23:21:31.865Z,4.30
2019-03-25T23:24:35.336Z,4.40
2019-03-25T23:27:38.820Z,4.50
2019-03-25T23:30:42.296Z,4.60
2019-03-25T23:33:52.244Z,4.60
2019-03-25T23:36:51.225Z,4.70
2019-03-25T23:39:54.683Z,4.70
2019-03-25T23:42:58.161Z,4.80
2019-03-25T23:46:01.645Z,4.90
2019-03-25T23:49:05.076Z,4.90
2019-03-25T23:52:09.140Z,4.90
2019-03-25T23:55:12.600Z,4.90
2019-03-25T23:58:16.061Z,4.90
